Perry, MO (63462)

10:03 PM CST on December 04, 2016 (GMT -0600)
Pigeon Roost Place | | Change Station

Elev 712 ft 39.49 °N, 91.71 °W | Updated 12 minutes ago

Overcast
Overcast
33.5 °F
Feels Like 34 °F
N
1.0
Wind Variable Wind from SSE
Gusts 3.0 mph

Today
High -- | Low -- °F
--% Chance of Precip.
Yesterday
High -- | Low -- °F
Precip. -- in
Pressure 30.00 in
Visibility 10.0 miles
Clouds Overcast 900 ft
Windchill 34 °F
Dew Point 33 °F
Humidity 97%
Rainfall 0.40 in
Snow Depth Not available.
7:11 AM 4:43 PM
Waxing Crescent, 28% visible
METAR KHAE 050335Z AUTO 00000KT 10SM OVC009 02/00 A3000 RMK AO2
Pressure 30.00 in
Visibility 10.0 miles
Clouds Overcast 900 ft
Windchill 34 °F
Dew Point 33 °F
Humidity 97%
Rainfall 0.40 in
Snow Depth Not available.
7:11 AM 4:43 PM
Waxing Crescent, 28% visible
METAR KHAE 050335Z AUTO 00000KT 10SM OVC009 02/00 A3000 RMK AO2

10-Day Weather Forecast

Almanac

Astronomy

Dec. 04, 2016 Rise Set
Actual Time
Civil Twilight
Nautical Twilight
Astronomical Twilight
Moon
Length of Visible Light
Length of Day
Tomorrow will be .
, % of the Moon is Illuminated

Today's Extremes

State Highs State Lows

Community

WunderPhotos

Upload Photos

1,955,757 photos uploaded!

WunderBlog® & News

Nearby

Air Quality

  Air Quality AQ Index Pollutant
Not available.

Snow Depth

Station Depth Elevation

Earthquake Activity

City Distance Mag. Time & Date
Minimum magnitude displayed is 2.5.

Coastal Water Temperatures

Place Temperature

Stations

Nearby Weather Stations

Station Location Temp. Windchill Dew Point Humidity Wind Precip. Elev Updated Type
                   

Watches & Warnings

There are currently no watches in effect.